createdAt,value
2023-01-19T00:01:21.455Z,57.70
2023-01-19T00:04:19.795Z,57.17
2023-01-19T00:07:17.907Z,70.03
2023-01-19T00:10:15.818Z,42.13
2023-01-19T00:13:14.566Z,58.00
2023-01-19T00:16:12.480Z,76.93
2023-01-19T00:19:10.303Z,66.53
2023-01-19T00:22:11.035Z,65.17
2023-01-19T00:25:09.216Z,52.67
2023-01-19T00:28:09.922Z,48.60
2023-01-19T00:31:07.735Z,72.37
2023-01-19T00:34:06.513Z,100.50
2023-01-19T00:37:04.934Z,84.57
2023-01-19T00:40:02.925Z,62.43
2023-01-19T00:43:01.219Z,85.37
2023-01-19T00:45:59.662Z,59.30
2023-01-19T00:48:57.469Z,66.07
2023-01-19T00:51:55.330Z,53.90
2023-01-19T00:54:53.283Z,36.63
2023-01-19T00:57:51.327Z,35.80
2023-01-19T01:00:49.476Z,32.73
2023-01-19T01:03:47.386Z,24.57
2023-01-19T01:06:45.234Z,28.67
2023-01-19T01:09:43.384Z,34.83
2023-01-19T01:12:41.664Z,45.60
2023-01-19T01:15:55.251Z,38.35
2023-01-19T01:18:53.040Z,34.90
2023-01-19T01:21:51.800Z,45.47
2023-01-19T01:24:49.580Z,37.90
2023-01-19T01:27:47.667Z,40.30
2023-01-19T01:30:45.782Z,35.33
2023-01-19T01:33:43.766Z,44.07
2023-01-19T01:36:42.252Z,38.23
2023-01-19T01:39:40.348Z,37.67
2023-01-19T01:42:38.151Z,45.03
2023-01-19T01:45:40.094Z,38.63
2023-01-19T01:48:39.732Z,25.17
2023-01-19T01:51:51.637Z,31.77
2023-01-19T01:54:49.497Z,24.77
2023-01-19T01:57:52.176Z,37.37
2023-01-19T02:01:05.331Z,37.70
2023-01-19T02:04:03.785Z,69.00
2023-01-19T02:07:17.195Z,112.13
2023-01-19T02:10:30.643Z,109.07
2023-01-19T02:13:30.634Z,97.40
2023-01-19T02:16:28.733Z,76.70
2023-01-19T02:19:34.611Z,79.97
2023-01-19T02:22:39.595Z,66.67
2023-01-19T02:25:37.236Z,54.37
2023-01-19T02:28:35.239Z,49.30
2023-01-19T02:31:35.171Z,33.77
2023-01-19T02:34:33.826Z,40.13
2023-01-19T02:37:37.864Z,36.43
2023-01-19T02:40:37.385Z,41.57
2023-01-19T02:43:36.817Z,33.70
2023-01-19T02:46:34.797Z,32.00
2023-01-19T02:49:32.538Z,24.97
2023-01-19T02:52:30.977Z,44.77
2023-01-19T02:55:31.203Z,45.23
2023-01-19T02:58:50.069Z,50.63
2023-01-19T03:02:04.626Z,25.07
2023-01-19T03:05:34.743Z,20.53
2023-01-19T03:08:49.103Z,24.30
2023-01-19T03:11:54.752Z,24.43
2023-01-19T03:14:56.440Z,58.37
2023-01-19T03:17:55.070Z,37.87
2023-01-19T03:20:59.478Z,38.90
2023-01-19T03:24:03.637Z,48.30
2023-01-19T03:27:06.558Z,51.17
2023-01-19T03:30:10.972Z,66.47
2023-01-19T03:33:13.572Z,55.60
2023-01-19T03:36:17.362Z,53.25
2023-01-19T03:39:21.975Z,40.70
2023-01-19T03:42:21.232Z,48.77
2023-01-19T03:45:20.024Z,48.97
2023-01-19T03:48:17.917Z,53.00
2023-01-19T03:51:16.700Z,41.00
2023-01-19T03:54:14.722Z,48.07
2023-01-19T03:57:12.905Z,39.97
2023-01-19T04:00:12.040Z,54.60
2023-01-19T04:03:18.692Z,68.80
2023-01-19T04:06:16.684Z,96.83
2023-01-19T04:09:14.443Z,55.80
2023-01-19T04:12:12.204Z,55.23
2023-01-19T04:15:09.997Z,52.80
2023-01-19T04:18:07.745Z,49.80
2023-01-19T04:21:07.911Z,66.40
2023-01-19T04:24:05.917Z,94.73
2023-01-19T04:27:03.569Z,115.07
2023-01-19T04:30:01.585Z,138.03
2023-01-19T04:33:00.602Z,130.00
2023-01-19T04:35:58.913Z,161.27
2023-01-19T04:38:56.807Z,162.63
2023-01-19T04:41:55.143Z,191.23
2023-01-19T04:44:53.164Z,217.53
2023-01-19T04:47:52.545Z,222.63
2023-01-19T04:50:52.948Z,210.90
2023-01-19T04:53:50.714Z,220.60
2023-01-19T04:56:48.490Z,255.60
2023-01-19T04:59:46.281Z,240.47
2023-01-19T05:02:45.577Z,231.47
2023-01-19T05:05:43.582Z,236.20
2023-01-19T05:08:41.204Z,275.63
2023-01-19T05:11:38.987Z,280.97
2023-01-19T05:14:36.928Z,272.97
2023-01-19T05:17:34.980Z,265.63
2023-01-19T05:20:32.690Z,282.23
2023-01-19T05:23:32.183Z,291.77
2023-01-19T05:26:29.801Z,297.53
2023-01-19T05:29:27.775Z,290.93
2023-01-19T05:32:25.499Z,283.87
2023-01-19T05:35:35.292Z,297.30
2023-01-19T05:38:35.563Z,311.97
2023-01-19T05:41:33.478Z,304.93
2023-01-19T05:44:31.059Z,306.70
2023-01-19T05:47:31.088Z,301.03
2023-01-19T05:50:28.699Z,307.10
2023-01-19T05:53:27.342Z,316.77
2023-01-19T05:56:24.978Z,301.00
2023-01-19T05:59:24.762Z,297.10
2023-01-19T06:02:28.934Z,312.70
2023-01-19T06:05:27.083Z,320.87
2023-01-19T06:08:24.744Z,331.87
2023-01-19T06:11:23.111Z,366.73
2023-01-19T06:14:24.285Z,298.40
2023-01-19T06:17:22.336Z,312.23
2023-01-19T06:20:20.055Z,332.03
2023-01-19T06:23:17.769Z,323.87
2023-01-19T06:26:15.384Z,310.13
2023-01-19T06:29:13.777Z,315.97
2023-01-19T06:32:11.617Z,288.23
2023-01-19T06:35:09.939Z,283.87
2023-01-19T06:38:07.582Z,298.20
2023-01-19T06:41:05.562Z,293.40
2023-01-19T06:44:03.869Z,304.70
2023-01-19T06:47:14.942Z,311.00
2023-01-19T06:50:13.454Z,299.60
2023-01-19T06:53:11.469Z,309.27
2023-01-19T06:56:10.155Z,292.60
2023-01-19T06:59:09.020Z,283.10
2023-01-19T07:02:27.679Z,290.77
2023-01-19T07:05:24.950Z,283.47
2023-01-19T07:08:22.746Z,266.80
2023-01-19T07:11:24.733Z,299.53
2023-01-19T07:14:33.857Z,313.60
2023-01-19T07:17:31.658Z,287.02
2023-01-19T07:20:29.481Z,262.35
2023-01-19T07:23:31.086Z,284.73
2023-01-19T07:26:29.791Z,282.67
2023-01-19T07:29:27.566Z,314.60
2023-01-19T07:32:25.211Z,304.88
2023-01-19T07:35:23.036Z,323.65
2023-01-19T07:38:21.365Z,314.55
2023-01-19T07:41:19.139Z,333.00
2023-01-19T07:44:16.983Z,325.85
2023-01-19T07:47:15.012Z,328.38
2023-01-19T07:50:14.273Z,324.48
2023-01-19T07:53:12.456Z,330.27
2023-01-19T07:56:10.886Z,353.65
2023-01-19T07:59:10.753Z,329.70
2023-01-19T08:02:11.146Z,325.15
2023-01-19T08:05:09.704Z,350.17
2023-01-19T08:08:07.556Z,345.42
2023-01-19T08:11:05.667Z,329.25
2023-01-19T08:14:03.476Z,333.73
2023-01-19T08:17:02.762Z,315.13
2023-01-19T08:20:00.663Z,335.07
2023-01-19T08:23:03.468Z,314.10
2023-01-19T08:26:01.369Z,334.45
2023-01-19T08:29:01.449Z,303.90
2023-01-19T08:32:00.703Z,334.65
2023-01-19T08:34:58.618Z,349.00
2023-01-19T08:37:56.593Z,396.92
2023-01-19T08:40:54.483Z,412.67
2023-01-19T08:43:52.342Z,409.55
2023-01-19T08:46:50.126Z,405.75
2023-01-19T08:49:48.005Z,420.17
2023-01-19T08:52:45.986Z,387.75
2023-01-19T08:55:43.968Z,390.63
2023-01-19T08:58:43.606Z,390.75
2023-01-19T09:01:42.706Z,373.20
2023-01-19T09:04:40.914Z,378.85
2023-01-19T09:07:39.246Z,387.13
2023-01-19T09:10:40.048Z,376.58
2023-01-19T09:13:38.028Z,371.65
2023-01-19T09:16:35.884Z,378.27
2023-01-19T09:19:35.193Z,344.37
2023-01-19T09:22:33.905Z,358.40
2023-01-19T09:25:33.076Z,355.95
2023-01-19T09:28:31.562Z,342.47
2023-01-19T09:31:29.435Z,354.47
2023-01-19T09:34:27.418Z,340.88
2023-01-19T09:37:25.073Z,354.80
2023-01-19T09:40:23.123Z,340.27
2023-01-19T09:43:41.529Z,361.23
2023-01-19T09:46:42.213Z,325.60
2023-01-19T09:49:46.219Z,339.80
2023-01-19T09:52:53.662Z,326.73
2023-01-19T09:55:51.740Z,352.95
2023-01-19T09:58:51.655Z,343.97
2023-01-19T10:02:28.945Z,327.63
2023-01-19T10:05:42.909Z,351.67
2023-01-19T10:08:52.117Z,335.10
2023-01-19T10:11:57.502Z,354.00
2023-01-19T10:15:07.321Z,345.25
2023-01-19T10:18:18.226Z,324.67
2023-01-19T10:21:25.835Z,321.33
2023-01-19T10:24:40.005Z,345.57
2023-01-19T10:27:39.147Z,326.73
2023-01-19T10:30:37.248Z,326.87
2023-01-19T10:33:35.682Z,324.37
2023-01-19T10:36:41.585Z,338.47
2023-01-19T10:39:40.499Z,327.10
2023-01-19T10:42:40.643Z,324.37
2023-01-19T10:45:38.575Z,311.30
2023-01-19T10:48:41.267Z,321.00
2023-01-19T10:51:49.637Z,317.25
2023-01-19T10:54:48.984Z,315.80
2023-01-19T10:57:51.866Z,319.00
2023-01-19T11:00:49.703Z,318.50
2023-01-19T11:03:47.911Z,327.47
2023-01-19T11:06:45.596Z,329.37
2023-01-19T11:09:43.358Z,344.60
2023-01-19T11:12:47.474Z,341.37
2023-01-19T11:16:00.040Z,348.90
2023-01-19T11:18:59.329Z,324.95
2023-01-19T11:22:22.341Z,300.50
2023-01-19T11:25:31.495Z,323.90
2023-01-19T11:28:34.522Z,316.20
2023-01-19T11:31:35.620Z,319.30
2023-01-19T11:34:37.163Z,312.30
2023-01-19T11:37:35.225Z,326.53
2023-01-19T11:40:34.432Z,295.87
2023-01-19T11:43:48.259Z,288.33
2023-01-19T11:46:53.968Z,297.57
2023-01-19T11:50:05.263Z,293.53
2023-01-19T11:53:13.370Z,285.73
2023-01-19T11:56:12.909Z,286.13
2023-01-19T11:59:13.619Z,290.43
2023-01-19T12:02:33.233Z,287.40
2023-01-19T12:05:34.080Z,286.00
2023-01-19T12:08:40.191Z,295.70
2023-01-19T12:11:43.415Z,290.70
2023-01-19T12:14:51.024Z,298.45
2023-01-19T12:17:53.100Z,289.57
2023-01-19T12:20:54.293Z,300.97
2023-01-19T12:24:04.061Z,282.53
2023-01-19T12:27:26.537Z,293.13
2023-01-19T12:30:27.448Z,293.30
2023-01-19T12:33:40.904Z,312.57
2023-01-19T12:36:39.625Z,326.43
2023-01-19T12:39:49.430Z,289.97
2023-01-19T12:42:54.259Z,285.97
2023-01-19T12:45:52.173Z,264.60
2023-01-19T12:48:50.054Z,286.60
2023-01-19T12:51:48.667Z,276.63
2023-01-19T12:55:04.285Z,313.93
2023-01-19T12:58:05.342Z,256.20
2023-01-19T13:01:16.495Z,308.83
2023-01-19T13:04:33.207Z,299.83
2023-01-19T13:07:30.828Z,280.80
2023-01-19T13:10:59.299Z,281.13
2023-01-19T13:14:32.028Z,276.13
2023-01-19T13:17:34.582Z,280.73
2023-01-19T13:20:45.331Z,273.92
2023-01-19T13:23:56.394Z,253.63
2023-01-19T13:26:58.020Z,274.87
2023-01-19T13:29:55.857Z,262.80
2023-01-19T13:32:57.043Z,259.23
2023-01-19T13:35:59.179Z,273.80
2023-01-19T13:38:59.392Z,253.90
2023-01-19T13:42:01.898Z,253.40
2023-01-19T13:45:03.043Z,257.67
2023-01-19T13:48:05.185Z,266.33
2023-01-19T13:51:06.035Z,274.27
2023-01-19T13:54:04.231Z,280.57
2023-01-19T13:57:02.107Z,277.37
2023-01-19T14:00:19.927Z,265.57
2023-01-19T14:03:23.988Z,253.50
2023-01-19T14:06:31.928Z,254.83
2023-01-19T14:09:29.671Z,259.60
2023-01-19T14:12:27.979Z,253.47
2023-01-19T14:15:25.899Z,249.23
2023-01-19T14:18:27.463Z,262.87
2023-01-19T14:21:25.261Z,271.77
2023-01-19T14:24:24.445Z,257.20
2023-01-19T14:27:25.288Z,258.13
2023-01-19T14:30:26.514Z,246.00
2023-01-19T14:33:41.830Z,255.63
2023-01-19T14:36:42.486Z,251.63
2023-01-19T14:39:46.707Z,259.13
2023-01-19T14:42:52.891Z,232.40
2023-01-19T14:45:50.600Z,236.10
2023-01-19T14:48:50.989Z,246.27
2023-01-19T14:51:49.609Z,237.60
2023-01-19T14:54:49.193Z,202.90
2023-01-19T14:57:47.313Z,189.73
2023-01-19T15:00:46.591Z,206.13
2023-01-19T15:03:45.618Z,212.93
2023-01-19T15:06:46.320Z,211.80
2023-01-19T15:09:44.231Z,230.37
2023-01-19T15:12:41.967Z,192.53
2023-01-19T15:15:39.724Z,216.97
2023-01-19T15:18:37.511Z,242.10
2023-01-19T15:21:35.147Z,224.17
2023-01-19T15:24:33.003Z,216.33
2023-01-19T15:27:30.681Z,215.00
2023-01-19T15:30:34.208Z,230.27
2023-01-19T15:33:32.064Z,228.97
2023-01-19T15:36:29.858Z,206.27
2023-01-19T15:39:27.527Z,237.00
2023-01-19T15:42:25.277Z,219.03
2023-01-19T15:45:49.337Z,215.00
2023-01-19T15:48:47.820Z,209.73
2023-01-19T15:51:46.164Z,210.67
2023-01-19T15:54:43.888Z,203.77
2023-01-19T15:57:41.545Z,225.87
2023-01-19T16:00:46.258Z,209.67
2023-01-19T16:03:45.413Z,216.73
2023-01-19T16:06:43.158Z,215.63
2023-01-19T16:09:40.890Z,199.87
2023-01-19T16:12:38.828Z,216.97
2023-01-19T16:15:38.445Z,216.33
2023-01-19T16:18:36.815Z,223.33
2023-01-19T16:21:34.440Z,196.87
2023-01-19T16:24:32.819Z,232.40
2023-01-19T16:27:30.540Z,230.00
2023-01-19T16:30:28.303Z,214.70
2023-01-19T16:33:25.994Z,196.83
2023-01-19T16:36:28.505Z,193.57
2023-01-19T16:39:26.157Z,187.73
2023-01-19T16:42:24.245Z,198.40
2023-01-19T16:45:21.840Z,191.80
2023-01-19T16:48:19.578Z,198.10
2023-01-19T16:51:17.465Z,193.67
2023-01-19T16:54:17.685Z,204.43
2023-01-19T16:57:15.349Z,202.43
2023-01-19T17:00:13.882Z,217.40
2023-01-19T17:03:11.706Z,205.90
2023-01-19T17:06:12.361Z,200.83
2023-01-19T17:09:10.570Z,194.60
2023-01-19T17:12:09.672Z,163.07
2023-01-19T17:15:07.953Z,171.63
2023-01-19T17:18:06.145Z,168.40
2023-01-19T17:21:07.317Z,186.43
2023-01-19T17:24:05.424Z,162.90
2023-01-19T17:27:03.365Z,184.63
2023-01-19T17:30:01.155Z,173.53
2023-01-19T17:32:58.843Z,190.00
2023-01-19T17:35:58.578Z,198.90
2023-01-19T17:38:58.263Z,179.83
2023-01-19T17:41:56.234Z,174.27
2023-01-19T17:44:53.872Z,167.63
2023-01-19T17:47:51.661Z,148.80
2023-01-19T17:50:49.279Z,129.80
2023-01-19T17:53:47.124Z,98.90
2023-01-19T17:56:44.789Z,97.27
2023-01-19T17:59:44.233Z,104.77
2023-01-19T18:02:41.951Z,94.70
2023-01-19T18:05:39.817Z,90.40
2023-01-19T18:08:43.164Z,98.83
2023-01-19T18:14:40.662Z,80.93
2023-01-19T18:17:38.459Z,106.47
2023-01-19T18:20:40.161Z,118.73
2023-01-19T18:23:38.526Z,99.97
2023-01-19T18:26:36.736Z,138.70
2023-01-19T18:29:34.779Z,157.53
2023-01-19T18:32:34.827Z,140.83
2023-01-19T18:35:32.741Z,157.57
2023-01-19T18:38:30.504Z,142.53
2023-01-19T18:41:29.982Z,128.80
2023-01-19T18:44:27.683Z,112.80
2023-01-19T18:47:25.573Z,104.57
2023-01-19T18:50:23.248Z,95.67
2023-01-19T18:53:21.746Z,85.87
2023-01-19T18:56:19.616Z,75.97
2023-01-19T18:59:17.323Z,80.23
2023-01-19T19:02:15.085Z,63.30
2023-01-19T19:05:12.874Z,60.90
2023-01-19T19:08:10.874Z,46.00
2023-01-19T19:11:09.764Z,50.20
2023-01-19T19:14:07.493Z,53.20
2023-01-19T19:17:05.315Z,54.93
2023-01-19T19:20:03.416Z,58.13
2023-01-19T19:23:20.552Z,58.77
2023-01-19T19:26:18.772Z,62.43
2023-01-19T19:29:16.504Z,87.67
2023-01-19T19:32:14.165Z,74.73
2023-01-19T19:35:13.174Z,74.20
2023-01-19T19:38:10.798Z,105.67
2023-01-19T19:41:10.589Z,85.70
2023-01-19T19:44:10.800Z,95.47
2023-01-19T19:47:08.743Z,107.07
2023-01-19T19:50:06.724Z,85.57
2023-01-19T19:53:04.452Z,133.50
2023-01-19T19:56:04.093Z,125.43
2023-01-19T19:59:02.136Z,103.50
2023-01-19T20:01:59.859Z,86.87
2023-01-19T20:04:59.007Z,88.33
2023-01-19T20:07:56.724Z,65.40
2023-01-19T20:10:54.668Z,47.73
2023-01-19T20:13:52.557Z,47.90
2023-01-19T20:16:50.511Z,50.07
2023-01-19T20:19:49.290Z,38.63
2023-01-19T20:22:47.005Z,41.23
2023-01-19T20:25:44.748Z,80.83
2023-01-19T20:28:42.865Z,68.57
2023-01-19T20:31:44.921Z,64.70
2023-01-19T20:34:42.836Z,110.43
2023-01-19T20:37:40.481Z,103.87
2023-01-19T20:40:38.307Z,120.53
2023-01-19T20:43:36.719Z,113.00
2023-01-19T20:46:34.461Z,98.57
2023-01-19T20:49:32.489Z,88.93
2023-01-19T20:52:30.588Z,104.47
2023-01-19T20:55:28.261Z,79.43
2023-01-19T20:58:26.354Z,80.10
2023-01-19T21:01:25.882Z,97.10
2023-01-19T21:04:23.772Z,69.97
2023-01-19T21:07:21.678Z,109.27
2023-01-19T21:10:19.765Z,85.63
2023-01-19T21:13:17.397Z,91.47
2023-01-19T21:16:16.144Z,118.40
2023-01-19T21:19:14.105Z,94.07
2023-01-19T21:22:11.951Z,76.10
2023-01-19T21:25:10.083Z,78.90
2023-01-19T21:28:10.971Z,127.47
2023-01-19T21:31:13.379Z,79.77
2023-01-19T21:34:11.410Z,80.13
2023-01-19T21:37:09.036Z,84.07
2023-01-19T21:40:07.580Z,72.97
2023-01-19T21:43:05.235Z,82.70
2023-01-19T21:46:12.759Z,87.20
2023-01-19T21:49:19.618Z,86.80
2023-01-19T21:52:17.443Z,78.50
2023-01-19T21:55:18.411Z,79.47
2023-01-19T21:58:17.111Z,73.20
2023-01-19T22:01:15.111Z,76.07
2023-01-19T22:04:13.184Z,87.13
2023-01-19T22:07:10.858Z,72.80
2023-01-19T22:10:10.033Z,129.40
2023-01-19T22:13:08.101Z,123.07
2023-01-19T22:16:09.708Z,76.03
2023-01-19T22:19:08.603Z,140.40
2023-01-19T22:22:06.481Z,108.97
2023-01-19T22:25:05.959Z,103.67
2023-01-19T22:28:06.717Z,84.50
2023-01-19T22:31:10.226Z,67.17
2023-01-19T22:34:10.709Z,51.10
2023-01-19T22:37:08.454Z,67.97
2023-01-19T22:40:06.742Z,85.10
2023-01-19T22:43:04.577Z,130.77
2023-01-19T22:46:03.703Z,70.67
2023-01-19T22:49:02.676Z,85.40
2023-01-19T22:52:00.482Z,93.60
2023-01-19T22:54:58.697Z,80.00
2023-01-19T22:57:56.447Z,106.83
2023-01-19T23:00:54.285Z,93.23
2023-01-19T23:03:52.654Z,97.77
2023-01-19T23:06:52.035Z,80.53
2023-01-19T23:09:49.737Z,99.90
2023-01-19T23:12:49.003Z,117.53
2023-01-19T23:15:46.811Z,78.17
2023-01-19T23:18:45.460Z,143.43
2023-01-19T23:21:43.354Z,166.93
2023-01-19T23:24:40.986Z,121.30
2023-01-19T23:27:38.756Z,114.27
2023-01-19T23:30:36.513Z,87.70
2023-01-19T23:33:34.249Z,100.97
2023-01-19T23:36:34.312Z,78.93
2023-01-19T23:39:32.157Z,74.87
2023-01-19T23:42:29.734Z,80.63
2023-01-19T23:45:27.484Z,97.17
2023-01-19T23:48:25.099Z,123.23
2023-01-19T23:51:28.555Z,106.33
2023-01-19T23:54:26.269Z,86.40
2023-01-19T23:57:24.132Z,66.77
